Time;durP1;ratioP1;P1;durP2;ratioP2;P2;SDS_P1;SDS_P2;PMS_P1;PMS_P2;Temp;Humidity;BMP_temperature;BMP_pressure;BME280_temperature;BME280_humidity;BME280_pressure;Samples;Min_cycle;Max_cycle;Signal;HPM_P1;HPM_P2
2023/07/10 00:01:44;;;;;;;12.88;7.03;;;19.70;99.90;;;;;;4977772;28;20185;-56
2023/07/10 00:04:18;;;;;;;9.32;5.65;;;19.70;99.90;;;;;;5000676;28;20037;-55
2023/07/10 00:06:45;;;;;;;11.05;6.15;;;19.70;99.90;;;;;;4994887;28;20034;-56
2023/07/10 00:09:10;;;;;;;13.45;6.22;;;19.70;99.90;;;;;;5000112;28;20025;-55
2023/07/10 00:11:36;;;;;;;8.43;6.32;;;19.70;99.90;;;;;;4998504;28;20097;-55
2023/07/10 00:14:15;;;;;;;11.07;6.32;;;19.70;99.90;;;;;;4989149;28;20029;-57
2023/07/10 00:16:40;;;;;;;8.73;5.88;;;19.70;99.90;;;;;;5000684;28;20109;-56
2023/07/10 00:19:13;;;;;;;10.75;7.00;;;19.70;99.90;;;;;;4978287;28;20640;-58
2023/07/10 00:21:39;;;;;;;9.85;6.13;;;19.70;99.90;;;;;;4994296;28;20030;-58
2023/07/10 00:24:05;;;;;;;10.63;6.78;;;19.70;99.90;;;;;;5003176;28;20063;-59
2023/07/10 00:26:30;;;;;;;8.65;6.97;;;19.70;99.90;;;;;;5002073;28;20026;-59
2023/07/10 00:28:57;;;;;;;7.55;5.57;;;19.60;99.90;;;;;;5003118;28;20026;-59
2023/07/10 00:31:26;;;;;;;8.10;5.90;;;19.60;99.90;;;;;;5001132;28;20034;-57
2023/07/10 00:33:53;;;;;;;14.57;6.80;;;19.60;99.90;;;;;;4997656;28;20054;-53
2023/07/10 00:36:35;;;;;;;10.60;7.78;;;19.60;99.90;;;;;;5005287;28;20034;-59
2023/07/10 00:39:14;;;;;;;9.15;6.22;;;19.60;99.90;;;;;;4998104;28;20270;-59
2023/07/10 00:41:40;;;;;;;9.25;6.18;;;19.50;99.90;;;;;;5001448;28;20485;-56
2023/07/10 00:44:06;;;;;;;9.80;7.00;;;19.50;99.90;;;;;;5002119;28;20033;-58
2023/07/10 00:47:02;;;;;;;9.57;6.80;;;19.50;99.90;;;;;;5002102;28;20164;-57
2023/07/10 00:49:49;;;;;;;10.20;6.40;;;19.50;99.90;;;;;;4996749;28;20035;-59
2023/07/10 00:52:22;;;;;;;10.00;6.30;;;19.60;99.90;;;;;;5002648;28;20022;-59
2023/07/10 00:54:51;;;;;;;9.10;7.18;;;19.60;99.90;;;;;;4998857;28;20028;-53
2023/07/10 00:57:24;;;;;;;9.80;6.72;;;19.60;99.90;;;;;;5003110;28;20034;-58
2023/07/10 00:59:51;;;;;;;9.55;6.50;;;19.60;99.90;;;;;;4997117;28;20025;-57
2023/07/10 01:02:19;;;;;;;8.93;5.72;;;19.50;99.90;;;;;;5000417;28;20049;-56
2023/07/10 01:04:58;;;;;;;11.40;6.35;;;19.50;99.90;;;;;;5000596;28;20452;-59
2023/07/10 01:07:27;;;;;;;9.48;6.32;;;19.50;99.90;;;;;;5003089;28;20057;-59
2023/07/10 01:10:00;;;;;;;9.57;6.53;;;19.50;99.90;;;;;;5001772;28;20021;-59
2023/07/10 01:12:28;;;;;;;8.55;6.50;;;19.40;99.90;;;;;;5000320;28;20019;-59
2023/07/10 01:14:53;;;;;;;8.60;6.50;;;19.50;99.90;;;;;;5002135;28;20045;-58
2023/07/10 01:17:19;;;;;;;9.70;5.90;;;19.40;99.90;;;;;;5005690;28;20464;-59
2023/07/10 01:19:46;;;;;;;10.98;6.32;;;19.40;99.90;;;;;;5003186;28;20084;-59
2023/07/10 01:22:13;;;;;;;10.38;6.50;;;19.40;99.90;;;;;;5008518;28;20558;-59
2023/07/10 01:24:38;;;;;;;10.45;5.90;;;19.40;99.90;;;;;;5000311;28;20141;-56
2023/07/10 01:27:11;;;;;;;11.60;6.00;;;19.40;99.90;;;;;;5003680;28;20033;-59
2023/07/10 01:29:43;;;;;;;9.18;6.35;;;19.40;99.90;;;;;;5002451;28;20051;-58
2023/07/10 01:32:13;;;;;;;8.45;5.90;;;19.40;99.90;;;;;;5002260;28;20034;-59
2023/07/10 01:34:43;;;;;;;9.52;6.25;;;19.40;99.90;;;;;;5002434;28;20563;-59
2023/07/10 01:37:11;;;;;;;7.60;5.90;;;19.40;99.90;;;;;;4995802;28;20109;-56
2023/07/10 01:39:44;;;;;;;9.85;5.80;;;19.40;99.90;;;;;;4999909;28;20460;-59
2023/07/10 01:42:09;;;;;;;7.28;5.78;;;19.40;99.90;;;;;;4994816;28;20034;-58
2023/07/10 01:44:38;;;;;;;7.85;5.82;;;19.40;99.90;;;;;;5003313;28;20033;-59
2023/07/10 01:47:07;;;;;;;10.57;6.20;;;19.40;99.90;;;;;;5000170;28;20030;-57
2023/07/10 01:49:57;;;;;;;7.45;5.93;;;19.40;99.90;;;;;;5007005;28;20022;-57
2023/07/10 01:52:23;;;;;;;7.75;5.72;;;19.40;99.90;;;;;;5006959;23;20140;-55
2023/07/10 01:54:49;;;;;;;6.00;5.40;;;19.40;99.90;;;;;;5009361;28;20030;-54
2023/07/10 01:57:16;;;;;;;8.40;5.60;;;19.40;99.90;;;;;;5018777;28;20384;-55
2023/07/10 01:59:41;;;;;;;9.10;5.63;;;19.40;99.90;;;;;;5026140;28;20025;-56
2023/07/10 02:02:08;;;;;;;8.07;5.70;;;19.40;99.90;;;;;;4996376;28;20117;-55
2023/07/10 02:04:34;;;;;;;11.80;6.13;;;19.40;99.90;;;;;;4997398;28;20497;-53
2023/07/10 02:07:00;;;;;;;7.80;5.75;;;19.40;99.90;;;;;;5001594;28;20053;-53
2023/07/10 02:09:27;;;;;;;6.18;5.18;;;19.30;99.90;;;;;;4997682;28;20030;-56
2023/07/10 02:11:54;;;;;;;9.90;5.78;;;19.30;99.90;;;;;;4996383;28;20034;-56
2023/07/10 02:14:20;;;;;;;6.50;5.50;;;19.30;99.90;;;;;;4998080;28;20584;-56
2023/07/10 02:16:46;;;;;;;6.72;5.78;;;19.30;99.90;;;;;;5000394;28;20054;-57
2023/07/10 02:19:12;;;;;;;6.78;5.57;;;19.20;99.90;;;;;;5001084;28;20057;-58
2023/07/10 02:21:38;;;;;;;9.05;5.20;;;19.20;99.90;;;;;;4997432;28;20030;-56
2023/07/10 02:24:04;;;;;;;8.55;5.30;;;19.20;99.90;;;;;;4997046;28;20037;-57
2023/07/10 02:26:29;;;;;;;5.85;4.82;;;19.20;99.90;;;;;;4997757;28;20022;-57
2023/07/10 02:28:58;;;;;;;9.02;5.75;;;19.20;99.90;;;;;;5002344;28;20037;-61
2023/07/10 02:31:25;;;;;;;7.05;5.15;;;19.20;99.90;;;;;;4969616;28;20122;-56
2023/07/10 02:33:51;;;;;;;8.98;5.75;;;19.20;99.90;;;;;;4993195;28;20033;-57
2023/07/10 02:36:17;;;;;;;6.97;5.25;;;19.10;99.90;;;;;;4995327;28;20022;-58
2023/07/10 02:38:43;;;;;;;7.13;5.72;;;19.10;99.90;;;;;;5000512;28;20566;-57
2023/07/10 02:41:08;;;;;;;5.70;5.18;;;19.10;99.90;;;;;;4999807;28;20026;-59
2023/07/10 02:43:34;;;;;;;6.25;5.68;;;19.10;99.90;;;;;;4996332;28;20193;-60
2023/07/10 02:45:59;;;;;;;7.28;5.60;;;19.10;99.90;;;;;;4988933;28;20068;-57
2023/07/10 02:48:25;;;;;;;8.10;5.43;;;19.10;99.90;;;;;;4999842;28;20030;-58
2023/07/10 02:50:51;;;;;;;8.75;6.15;;;19.00;99.90;;;;;;4992678;28;20028;-59
2023/07/10 02:53:16;;;;;;;7.18;5.75;;;19.00;99.90;;;;;;4978562;28;20492;-59
2023/07/10 02:55:43;;;;;;;7.70;5.88;;;19.00;99.90;;;;;;4995685;28;20102;-60
2023/07/10 02:58:08;;;;;;;8.95;5.80;;;19.00;99.90;;;;;;4996747;28;20045;-60
2023/07/10 03:00:34;;;;;;;6.35;5.75;;;19.00;99.90;;;;;;4998667;28;20061;-56
2023/07/10 03:03:00;;;;;;;6.72;6.00;;;19.00;99.90;;;;;;4999704;28;20030;-55
2023/07/10 03:05:26;;;;;;;7.80;5.45;;;19.00;99.90;;;;;;4997874;28;20018;-56
2023/07/10 03:07:52;;;;;;;11.80;5.97;;;19.00;99.90;;;;;;4983316;28;20374;-58
2023/07/10 03:10:19;;;;;;;8.25;6.22;;;19.00;99.90;;;;;;4997249;28;20045;-56
2023/07/10 03:12:45;;;;;;;9.10;6.78;;;19.00;99.90;;;;;;4999897;28;20091;-60
2023/07/10 03:15:11;;;;;;;7.85;6.00;;;19.00;99.90;;;;;;4998610;28;20030;-57
2023/07/10 03:17:37;;;;;;;9.80;6.68;;;19.00;99.90;;;;;;4998907;28;20504;-56
2023/07/10 03:20:04;;;;;;;6.18;5.25;;;19.00;99.90;;;;;;4997168;28;20022;-57
2023/07/10 03:22:29;;;;;;;8.75;6.93;;;19.00;99.90;;;;;;4995427;28;20030;-57
2023/07/10 03:24:55;;;;;;;10.75;6.28;;;19.10;99.90;;;;;;4991948;28;20030;-58
2023/07/10 03:27:22;;;;;;;8.38;6.57;;;19.10;99.90;;;;;;4995495;28;20034;-60
2023/07/10 03:29:48;;;;;;;7.78;6.70;;;19.00;99.90;;;;;;4977840;28;20028;-57
2023/07/10 03:32:13;;;;;;;9.93;7.13;;;19.00;99.90;;;;;;4991947;28;20121;-58
2023/07/10 03:34:39;;;;;;;11.60;8.10;;;19.00;99.90;;;;;;4982867;28;20489;-56
2023/07/10 03:37:05;;;;;;;12.23;8.30;;;19.00;99.90;;;;;;4995063;28;20026;-56
2023/07/10 03:39:31;;;;;;;8.88;7.78;;;19.00;99.90;;;;;;4994092;28;20025;-58
2023/07/10 03:41:56;;;;;;;9.75;7.60;;;19.00;99.90;;;;;;4990863;28;20030;-57
2023/07/10 03:44:22;;;;;;;12.07;8.20;;;19.10;99.90;;;;;;4979006;28;20046;-57
2023/07/10 03:46:48;;;;;;;8.18;7.30;;;19.10;99.90;;;;;;4997265;28;20026;-58
2023/07/10 03:49:14;;;;;;;14.23;8.52;;;19.10;99.90;;;;;;4994076;28;20019;-59
2023/07/10 03:51:39;;;;;;;11.77;9.40;;;19.10;99.90;;;;;;4996253;28;20031;-57
2023/07/10 03:54:07;;;;;;;11.27;8.00;;;19.10;99.90;;;;;;4989725;28;20121;-58
2023/07/10 03:56:33;;;;;;;10.15;8.13;;;19.10;99.90;;;;;;4998093;28;20029;-56
2023/07/10 03:58:59;;;;;;;15.60;10.20;;;19.10;99.90;;;;;;5001099;28;20022;-57
2023/07/10 04:01:24;;;;;;;12.95;9.98;;;19.10;99.90;;;;;;4999905;28;20090;-59
2023/07/10 04:03:50;;;;;;;13.63;10.30;;;19.10;99.90;;;;;;4995526;28;20025;-60
2023/07/10 04:06:16;;;;;;;12.65;9.77;;;19.10;99.90;;;;;;5003198;28;20125;-56
2023/07/10 04:08:44;;;;;;;10.73;9.20;;;19.10;99.90;;;;;;4998885;28;20092;-59
2023/07/10 04:11:21;;;;;;;11.65;9.85;;;19.10;99.90;;;;;;5000180;28;20202;-56
2023/07/10 04:13:50;;;;;;;11.48;9.85;;;19.10;99.90;;;;;;4996014;28;20048;-60
2023/07/10 04:16:17;;;;;;;11.02;10.00;;;19.10;99.90;;;;;;5002065;28;20034;-57
2023/07/10 04:18:44;;;;;;;12.77;11.02;;;19.10;99.90;;;;;;4982853;28;20026;-61
2023/07/10 04:21:13;;;;;;;13.60;12.20;;;19.10;99.90;;;;;;5000259;28;20036;-59
2023/07/10 04:23:39;;;;;;;13.32;11.95;;;19.10;99.90;;;;;;4985518;28;20574;-60
2023/07/10 04:26:06;;;;;;;17.02;13.77;;;19.00;99.90;;;;;;5001495;28;20057;-60
2023/07/10 04:28:32;;;;;;;16.23;14.00;;;19.00;99.90;;;;;;4987509;28;20066;-57
2023/07/10 04:30:57;;;;;;;21.38;16.38;;;18.90;99.90;;;;;;4999307;28;20033;-57
2023/07/10 04:33:23;;;;;;;25.27;18.10;;;18.90;99.90;;;;;;5002115;28;20037;-60
2023/07/10 04:35:56;;;;;;;22.00;17.70;;;18.90;99.90;;;;;;4997312;28;20117;-60
2023/07/10 04:38:24;;;;;;;23.13;18.25;;;18.80;99.90;;;;;;5001861;28;20121;-59
2023/07/10 04:40:57;;;;;;;21.27;18.17;;;18.80;99.90;;;;;;4983233;28;20081;-60
2023/07/10 04:43:25;;;;;;;21.67;19.25;;;18.80;99.90;;;;;;5004861;28;20117;-60
2023/07/10 04:45:53;;;;;;;20.63;18.05;;;18.90;99.90;;;;;;4985799;28;20029;-60
2023/07/10 04:48:19;;;;;;;28.67;20.02;;;18.80;99.90;;;;;;4999491;28;20022;-60
2023/07/10 04:50:49;;;;;;;18.63;16.73;;;18.80;99.90;;;;;;4990257;28;20022;-61
2023/07/10 04:53:16;;;;;;;21.42;18.30;;;18.90;99.90;;;;;;4995495;28;20034;-60
2023/07/10 04:55:42;;;;;;;18.27;15.05;;;19.00;99.90;;;;;;5003140;28;20495;-61
2023/07/10 04:58:08;;;;;;;19.27;16.10;;;19.00;99.90;;;;;;5001063;28;20030;-61
2023/07/10 05:00:34;;;;;;;24.02;17.35;;;19.10;99.90;;;;;;4997428;28;20123;-61
2023/07/10 05:03:00;;;;;;;18.33;16.52;;;19.10;99.90;;;;;;5001714;28;20500;-60
2023/07/10 05:05:25;;;;;;;18.88;14.57;;;19.10;99.90;;;;;;4999865;28;20030;-62
2023/07/10 05:07:51;;;;;;;21.08;17.08;;;19.20;99.90;;;;;;5002721;28;20026;-60
2023/07/10 05:10:16;;;;;;;14.43;12.88;;;19.20;99.90;;;;;;4999158;28;20026;-61
2023/07/10 05:12:42;;;;;;;18.10;14.70;;;19.30;99.90;;;;;;5001937;28;20050;-61
2023/07/10 05:15:08;;;;;;;18.55;14.68;;;19.30;99.90;;;;;;5003952;28;20658;-59
2023/07/10 05:17:33;;;;;;;20.80;15.73;;;19.30;99.90;;;;;;4999550;28;20042;-62
2023/07/10 05:19:59;;;;;;;15.52;13.25;;;19.40;99.90;;;;;;5002404;28;20042;-61
2023/07/10 05:22:24;;;;;;;12.73;11.48;;;19.40;99.90;;;;;;4998890;28;20408;-61
2023/07/10 05:24:51;;;;;;;14.90;12.93;;;19.40;99.90;;;;;;4991544;28;20030;-61
2023/07/10 05:27:19;;;;;;;17.27;13.77;;;19.50;99.90;;;;;;4996047;28;20041;-61
2023/07/10 05:29:45;;;;;;;15.43;13.52;;;19.50;99.90;;;;;;4995859;28;20026;-61
2023/07/10 05:32:11;;;;;;;14.82;13.43;;;19.60;99.90;;;;;;4994941;28;20027;-62
2023/07/10 05:34:36;;;;;;;19.55;16.92;;;19.50;99.90;;;;;;4982187;28;20129;-60
2023/07/10 05:37:02;;;;;;;15.23;12.98;;;19.60;99.90;;;;;;4980665;28;20034;-61
2023/07/10 05:39:30;;;;;;;15.30;13.70;;;19.60;99.90;;;;;;5000689;28;20029;-61
2023/07/10 05:41:58;;;;;;;16.05;13.40;;;19.70;99.90;;;;;;4997196;28;20034;-60
2023/07/10 05:44:24;;;;;;;17.35;15.45;;;19.80;99.90;;;;;;4980770;28;20027;-62
2023/07/10 05:46:51;;;;;;;14.82;12.95;;;19.90;99.90;;;;;;4994356;28;20030;-61
2023/07/10 05:49:16;;;;;;;14.63;12.57;;;20.00;99.90;;;;;;5001563;28;20018;-61
2023/07/10 05:51:42;;;;;;;14.95;12.52;;;20.10;99.90;;;;;;4994322;28;20105;-61
2023/07/10 05:54:07;;;;;;;16.08;13.43;;;20.10;99.90;;;;;;4993296;28;20076;-61
2023/07/10 05:56:33;;;;;;;15.65;13.48;;;20.20;99.90;;;;;;4990396;28;20030;-61
2023/07/10 05:58:58;;;;;;;14.05;12.63;;;20.20;99.90;;;;;;5001612;28;20045;-61
2023/07/10 06:01:24;;;;;;;18.00;14.15;;;20.20;99.90;;;;;;4993210;28;20056;-61
2023/07/10 06:03:50;;;;;;;13.30;11.90;;;20.20;99.90;;;;;;4999893;28;20036;-62
2023/07/10 06:06:15;;;;;;;14.05;12.15;;;20.20;99.90;;;;;;4997100;28;20023;-62
2023/07/10 06:08:41;;;;;;;15.45;12.93;;;20.20;99.90;;;;;;5000625;28;20651;-62
2023/07/10 06:11:07;;;;;;;18.30;15.02;;;20.20;99.90;;;;;;4994560;28;20035;-62
2023/07/10 06:13:33;;;;;;;16.75;14.93;;;20.30;99.90;;;;;;4984841;28;20417;-61
2023/07/10 06:15:59;;;;;;;16.38;14.45;;;20.30;99.90;;;;;;4995325;28;20037;-61
2023/07/10 06:18:26;;;;;;;16.38;13.82;;;20.40;99.90;;;;;;4983679;28;20033;-62
2023/07/10 06:20:52;;;;;;;15.82;13.40;;;20.40;99.90;;;;;;4992336;28;20547;-59
2023/07/10 06:23:19;;;;;;;14.80;13.20;;;20.50;99.90;;;;;;5002205;28;20504;-61
2023/07/10 06:25:45;;;;;;;17.00;14.48;;;20.50;99.90;;;;;;5000143;28;20037;-60
2023/07/10 06:28:11;;;;;;;16.75;15.15;;;20.60;99.90;;;;;;4999648;28;20019;-61
2023/07/10 06:30:42;;;;;;;20.02;15.55;;;20.60;99.90;;;;;;4999616;28;20030;-62
2023/07/10 06:33:08;;;;;;;19.92;15.27;;;20.50;99.90;;;;;;5005086;28;20083;-60
2023/07/10 06:35:34;;;;;;;18.15;15.82;;;20.50;99.90;;;;;;4999450;28;20661;-61
2023/07/10 06:37:59;;;;;;;16.95;15.13;;;20.40;99.90;;;;;;4999662;28;20030;-62
2023/07/10 06:40:25;;;;;;;15.43;13.82;;;20.40;99.90;;;;;;5000617;28;20069;-59
2023/07/10 06:42:51;;;;;;;18.58;14.73;;;20.30;99.90;;;;;;4999669;28;20022;-59
2023/07/10 06:45:16;;;;;;;16.73;13.63;;;20.30;99.90;;;;;;4993609;28;20030;-56
2023/07/10 06:47:44;;;;;;;15.55;13.68;;;20.20;99.90;;;;;;4996759;28;20033;-56
2023/07/10 06:50:12;;;;;;;18.52;15.63;;;20.20;99.90;;;;;;4978875;28;20412;-58
2023/07/10 06:52:40;;;;;;;14.80;13.25;;;20.20;99.90;;;;;;4997689;28;20504;-59
2023/07/10 06:55:07;;;;;;;18.98;15.88;;;20.10;99.90;;;;;;4994127;28;20105;-58
2023/07/10 06:57:34;;;;;;;16.23;14.02;;;20.10;99.90;;;;;;4980078;28;20541;-57
2023/07/10 07:00:00;;;;;;;17.45;15.65;;;20.10;99.90;;;;;;4997957;28;20108;-59
2023/07/10 07:02:26;;;;;;;16.40;14.73;;;20.00;99.90;;;;;;4992154;28;20061;-57
2023/07/10 07:04:52;;;;;;;13.15;11.85;;;20.10;99.90;;;;;;4979486;28;20022;-60
2023/07/10 07:07:17;;;;;;;15.88;14.40;;;20.00;99.90;;;;;;4996883;28;20022;-57
2023/07/10 07:09:43;;;;;;;16.52;14.75;;;20.00;99.90;;;;;;5001155;28;20027;-55
2023/07/10 07:12:10;;;;;;;19.58;14.82;;;20.00;99.90;;;;;;4998023;28;20042;-56
2023/07/10 07:14:35;;;;;;;19.05;17.15;;;20.00;99.90;;;;;;4986444;28;20042;-58
2023/07/10 07:17:01;;;;;;;17.10;15.45;;;20.00;99.90;;;;;;4996462;28;20064;-55
2023/07/10 07:19:27;;;;;;;19.83;16.73;;;20.10;99.90;;;;;;4977671;28;20429;-57
2023/07/10 07:21:52;;;;;;;16.90;15.18;;;20.00;99.90;;;;;;4998881;28;20030;-58
2023/07/10 07:24:18;;;;;;;17.15;14.77;;;20.10;99.90;;;;;;4996313;28;20464;-55
2023/07/10 07:26:43;;;;;;;16.65;15.05;;;20.00;99.90;;;;;;5003535;28;20034;-57
2023/07/10 07:29:09;;;;;;;16.52;14.80;;;20.00;99.90;;;;;;4993114;28;20393;-58
2023/07/10 07:31:37;;;;;;;15.55;13.98;;;20.00;99.90;;;;;;4999938;28;20508;-57
2023/07/10 07:34:03;;;;;;;15.57;13.90;;;20.00;99.90;;;;;;4996212;28;20037;-57
2023/07/10 07:36:32;;;;;;;14.82;13.52;;;20.10;99.90;;;;;;4992872;28;20027;-56
2023/07/10 07:38:57;;;;;;;13.48;12.25;;;20.30;99.90;;;;;;4998654;28;20121;-57
2023/07/10 07:41:23;;;;;;;15.65;14.05;;;20.40;99.90;;;;;;4997248;28;20121;-58
2023/07/10 07:43:48;;;;;;;13.05;11.75;;;20.50;99.90;;;;;;5003396;28;20491;-57
2023/07/10 07:46:14;;;;;;;12.98;11.50;;;20.70;99.90;;;;;;4993842;28;20451;-56
2023/07/10 07:48:40;;;;;;;11.85;10.65;;;20.90;99.90;;;;;;4980921;28;20034;-57
2023/07/10 07:51:07;;;;;;;9.55;8.55;;;21.10;99.90;;;;;;4998966;28;20030;-57
2023/07/10 07:53:40;;;;;;;9.68;8.68;;;21.10;99.90;;;;;;5026656;23;20042;-60
2023/07/10 07:56:05;;;;;;;9.23;8.00;;;21.10;99.90;;;;;;5016017;28;20037;-62
2023/07/10 07:58:31;;;;;;;7.93;7.13;;;21.10;99.90;;;;;;5008450;28;20045;-60
2023/07/10 08:00:57;;;;;;;13.38;6.93;;;21.00;99.90;;;;;;5001652;28;20030;-57
2023/07/10 08:03:23;;;;;;;7.95;6.65;;;21.10;99.90;;;;;;5014599;28;20025;-57
2023/07/10 08:05:48;;;;;;;6.85;5.97;;;21.00;99.90;;;;;;5015018;28;20021;-61
2023/07/10 08:08:14;;;;;;;6.57;5.80;;;21.10;99.90;;;;;;5015367;28;20104;-59
2023/07/10 08:10:42;;;;;;;10.27;6.70;;;21.10;99.90;;;;;;5015049;28;20018;-62
2023/07/10 08:13:10;;;;;;;11.35;7.30;;;21.00;99.90;;;;;;5012969;28;20037;-62
2023/07/10 08:15:36;;;;;;;9.52;7.18;;;21.00;99.90;;;;;;5012102;28;20123;-60
2023/07/10 08:18:02;;;;;;;9.55;6.55;;;20.90;99.90;;;;;;5010422;28;20497;-62
2023/07/10 08:20:28;;;;;;;10.07;7.80;;;21.00;99.90;;;;;;5014911;28;20049;-61
2023/07/10 08:22:53;;;;;;;10.63;8.57;;;20.90;99.90;;;;;;5018864;28;20025;-60
2023/07/10 08:25:19;;;;;;;8.70;7.35;;;20.90;99.90;;;;;;5013744;28;20483;-59
2023/07/10 08:27:45;;;;;;;8.75;7.88;;;20.80;99.90;;;;;;5018569;28;20483;-61
2023/07/10 08:30:12;;;;;;;10.30;8.40;;;20.80;99.90;;;;;;5012954;28;20018;-60
2023/07/10 08:32:38;;;;;;;11.20;8.48;;;20.70;99.90;;;;;;5019236;28;20029;-60
2023/07/10 08:35:05;;;;;;;7.30;6.50;;;20.70;99.90;;;;;;5019600;28;20491;-61
2023/07/10 08:37:30;;;;;;;8.65;7.05;;;20.80;99.90;;;;;;5016924;28;20022;-61
2023/07/10 08:39:56;;;;;;;10.52;7.43;;;20.80;99.90;;;;;;5024638;28;20061;-57
2023/07/10 08:42:27;;;;;;;9.73;6.97;;;21.00;99.90;;;;;;4994961;28;20034;-60
2023/07/10 08:44:53;;;;;;;8.63;6.88;;;21.00;99.90;;;;;;5007838;28;20196;-60
2023/07/10 08:47:32;;;;;;;10.32;7.05;;;21.00;99.90;;;;;;5023987;28;20095;-58
2023/07/10 08:50:13;;;;;;;9.38;6.55;;;21.00;99.90;;;;;;5009825;28;20014;-60
2023/07/10 08:53:05;;;;;;;8.40;6.38;;;21.10;99.90;;;;;;5011397;28;20670;-61
2023/07/10 08:55:42;;;;;;;8.57;6.60;;;21.10;99.90;;;;;;5012049;28;20541;-60
2023/07/10 08:58:17;;;;;;;5.75;5.13;;;21.10;99.90;;;;;;5024341;28;20033;-61
2023/07/10 09:00:46;;;;;;;7.38;5.57;;;21.20;99.90;;;;;;5017535;28;20045;-63
2023/07/10 09:03:44;;;;;;;6.75;5.28;;;21.30;99.90;;;;;;5016321;28;20029;-62
2023/07/10 09:06:23;;;;;;;6.63;4.82;;;21.50;99.90;;;;;;5014328;28;20121;-62
2023/07/10 09:08:52;;;;;;;6.15;4.93;;;21.80;99.90;;;;;;5019504;28;20385;-62
2023/07/10 09:11:18;;;;;;;5.35;4.53;;;22.00;99.90;;;;;;5022612;28;20112;-63
2023/07/10 09:13:51;;;;;;;6.20;4.13;;;21.90;99.90;;;;;;5021240;28;20105;-61
2023/07/10 09:16:20;;;;;;;6.32;4.30;;;21.90;99.90;;;;;;5022945;28;20086;-62
2023/07/10 09:18:52;;;;;;;4.75;4.20;;;22.00;99.90;;;;;;5010634;28;20032;-63
2023/07/10 09:21:21;;;;;;;7.25;4.03;;;22.20;99.90;;;;;;5023872;28;20071;-63
2023/07/10 09:23:47;;;;;;;8.10;4.13;;;22.30;99.90;;;;;;5001062;28;20018;-64
2023/07/10 09:26:18;;;;;;;11.25;4.18;;;22.40;99.90;;;;;;5016862;28;20515;-68
2023/07/10 09:29:16;;;;;;;6.45;3.80;;;22.50;99.90;;;;;;5013047;28;20027;-64
2023/07/10 09:31:50;;;;;;;6.55;3.90;;;22.50;99.90;;;;;;5008154;28;20040;-65
2023/07/10 09:34:20;;;;;;;4.35;3.15;;;22.50;99.90;;;;;;5018709;28;20101;-64
2023/07/10 09:36:53;;;;;;;5.60;3.70;;;22.50;99.90;;;;;;5003951;28;20553;-63
2023/07/10 09:39:19;;;;;;;6.40;4.00;;;22.40;99.90;;;;;;5002906;28;20715;-65
2023/07/10 09:41:47;;;;;;;5.43;3.90;;;22.40;99.90;;;;;;5000655;28;20037;-65
2023/07/10 09:44:22;;;;;;;4.70;3.50;;;22.40;99.90;;;;;;5018422;28;20465;-66
2023/07/10 09:46:49;;;;;;;4.25;3.53;;;22.40;99.90;;;;;;5001052;28;20048;-64
2023/07/10 09:49:20;;;;;;;5.82;3.38;;;22.40;99.90;;;;;;5021502;28;20124;-64
2023/07/10 09:52:03;;;;;;;5.68;3.22;;;22.40;99.90;;;;;;5001679;28;20732;-63
2023/07/10 09:54:37;;;;;;;4.72;3.33;;;22.50;99.90;;;;;;5021107;28;20038;-64
2023/07/10 09:57:09;;;;;;;5.72;3.70;;;22.50;99.90;;;;;;5022585;28;20025;-63
2023/07/10 09:59:35;;;;;;;4.00;3.30;;;22.70;99.90;;;;;;5014036;28;20496;-63
2023/07/10 10:02:26;;;;;;;3.80;3.40;;;22.90;99.90;;;;;;4996328;28;20038;-63
2023/07/10 10:05:10;;;;;;;4.72;3.65;;;23.10;99.90;;;;;;5015823;28;20022;-63
2023/07/10 10:07:41;;;;;;;3.75;3.25;;;22.90;99.90;;;;;;5016595;28;20038;-62
2023/07/10 10:10:25;;;;;;;3.75;2.75;;;23.00;99.90;;;;;;5007529;28;20121;-63
2023/07/10 10:13:01;;;;;;;4.60;3.55;;;23.00;99.90;;;;;;5016602;28;20033;-62
2023/07/10 10:16:02;;;;;;;4.88;3.53;;;22.90;99.90;;;;;;5017665;28;20485;-63
2023/07/10 10:18:55;;;;;;;6.07;3.80;;;22.90;99.90;;;;;;5019290;28;20369;-61
2023/07/10 10:21:22;;;;;;;4.40;3.22;;;22.90;99.90;;;;;;4999661;28;20037;-62
2023/07/10 10:23:57;;;;;;;5.43;4.15;;;22.90;99.90;;;;;;5020835;28;20025;-62
2023/07/10 10:26:50;;;;;;;4.72;3.65;;;22.90;99.90;;;;;;5004421;28;20025;-63
2023/07/10 10:29:15;;;;;;;8.05;4.88;;;22.80;99.90;;;;;;5007341;28;20018;-64
2023/07/10 10:31:49;;;;;;;6.22;3.83;;;22.90;99.90;;;;;;5018393;28;20086;-62
2023/07/10 10:34:34;;;;;;;3.95;3.10;;;22.80;99.90;;;;;;4994284;28;20515;-61
2023/07/10 10:37:16;;;;;;;3.75;2.78;;;22.80;99.90;;;;;;4951713;28;20099;-62
2023/07/10 10:40:02;;;;;;;3.67;2.95;;;22.80;99.90;;;;;;5018572;28;20026;-62
2023/07/10 10:43:01;;;;;;;4.05;2.60;;;22.90;99.90;;;;;;5002430;28;20151;-63
2023/07/10 10:45:34;;;;;;;7.20;2.80;;;22.90;99.90;;;;;;5012416;28;20739;-60
2023/07/10 10:48:30;;;;;;;3.28;2.78;;;22.90;99.90;;;;;;5003163;28;20121;-61
2023/07/10 10:51:03;;;;;;;5.82;3.35;;;23.00;99.90;;;;;;5007168;28;20026;-61
2023/07/10 10:53:42;;;;;;;6.05;3.22;;;23.10;99.90;;;;;;5000262;28;20045;-61
2023/07/10 10:56:24;;;;;;;4.45;3.03;;;23.10;99.90;;;;;;5015244;28;20412;-62
2023/07/10 10:59:18;;;;;;;4.88;3.10;;;23.00;99.90;;;;;;5009147;28;20037;-62
2023/07/10 11:01:56;;;;;;;4.32;3.20;;;23.20;99.90;;;;;;4991914;28;20700;-60
2023/07/10 11:04:26;;;;;;;4.03;2.80;;;23.40;99.90;;;;;;5022490;28;20446;-62
2023/07/10 11:06:57;;;;;;;2.33;2.13;;;23.70;99.90;;;;;;4988544;28;20033;-63
2023/07/10 11:09:29;;;;;;;3.85;2.65;;;23.80;99.90;;;;;;5002225;28;20079;-63
2023/07/10 11:11:57;;;;;;;4.72;1.73;;;23.70;99.90;;;;;;4991821;28;20017;-63
2023/07/10 11:14:23;;;;;;;3.20;2.00;;;23.70;99.90;;;;;;5024305;28;20029;-64
2023/07/10 11:16:49;;;;;;;2.38;2.17;;;23.60;99.90;;;;;;5006940;28;20488;-59
2023/07/10 11:19:19;;;;;;;4.35;2.67;;;23.70;99.90;;;;;;5016689;28;20511;-61
2023/07/10 11:21:45;;;;;;;3.63;2.20;;;23.70;99.90;;;;;;5022007;28;20060;-60
2023/07/10 11:24:26;;;;;;;2.80;2.40;;;23.60;99.90;;;;;;5016392;28;20073;-61
2023/07/10 11:26:52;;;;;;;3.63;2.25;;;23.50;99.90;;;;;;5010632;28;20018;-62
2023/07/10 11:29:43;;;;;;;5.65;2.88;;;23.50;99.90;;;;;;5013127;28;20061;-62
2023/07/10 11:32:18;;;;;;;5.05;3.15;;;23.40;99.90;;;;;;5018905;28;20562;-61
2023/07/10 11:35:14;;;;;;;3.97;3.27;;;23.30;99.90;;;;;;5018410;28;20017;-63
2023/07/10 11:37:48;;;;;;;5.65;2.55;;;23.30;99.90;;;;;;5009238;28;20352;-58
2023/07/10 11:40:29;;;;;;;2.83;2.00;;;23.10;99.90;;;;;;4997071;28;20038;-58
2023/07/10 11:42:58;;;;;;;2.60;2.28;;;23.10;99.90;;;;;;5016213;28;20076;-62
2023/07/10 11:46:12;;;;;;;3.22;2.50;;;23.10;99.90;;;;;;5011491;28;20439;-63
2023/07/10 11:48:58;;;;;;;4.28;2.20;;;23.10;99.90;;;;;;4995957;28;20112;-61
2023/07/10 11:51:29;;;;;;;3.97;2.13;;;23.20;99.90;;;;;;5007524;28;20033;-61
2023/07/10 11:54:10;;;;;;;3.47;2.22;;;23.40;99.90;;;;;;5004632;28;20037;-63
2023/07/10 11:56:35;;;;;;;4.35;2.03;;;23.40;99.90;;;;;;5016816;28;20101;-64
2023/07/10 11:59:20;;;;;;;2.97;2.28;;;23.40;99.90;;;;;;5013480;28;20105;-62
2023/07/10 12:01:46;;;;;;;4.30;2.50;;;23.50;99.90;;;;;;5017775;28;20173;-61
2023/07/10 12:04:15;;;;;;;3.08;1.98;;;23.50;99.90;;;;;;5002393;28;20113;-60
2023/07/10 12:06:45;;;;;;;2.90;1.80;;;23.60;99.90;;;;;;4999193;28;20025;-62
2023/07/10 12:09:11;;;;;;;4.82;2.35;;;23.70;99.90;;;;;;5015730;28;20042;-61
2023/07/10 12:11:38;;;;;;;3.55;1.98;;;23.80;99.90;;;;;;5017920;28;20100;-63
2023/07/10 12:14:17;;;;;;;2.42;2.00;;;23.90;99.90;;;;;;5006098;28;20379;-62
2023/07/10 12:16:55;;;;;;;2.00;1.63;;;24.00;99.90;;;;;;5022868;28;20032;-64
2023/07/10 12:19:30;;;;;;;2.95;1.40;;;24.10;99.90;;;;;;5015930;28;20057;-60
2023/07/10 12:21:58;;;;;;;2.20;1.77;;;24.00;99.90;;;;;;5014674;28;20041;-64
2023/07/10 12:24:23;;;;;;;1.70;1.58;;;23.90;99.90;;;;;;5015801;28;20567;-60
2023/07/10 12:26:59;;;;;;;1.85;1.63;;;24.00;99.90;;;;;;5021031;28;20037;-57
2023/07/10 12:29:25;;;;;;;3.83;1.88;;;24.00;99.90;;;;;;4995474;28;20119;-63
2023/07/10 12:31:50;;;;;;;4.13;1.95;;;24.00;99.90;;;;;;5023318;28;20045;-61
2023/07/10 12:34:26;;;;;;;3.55;1.80;;;23.80;99.90;;;;;;5003134;28;20014;-66
2023/07/10 12:36:53;;;;;;;;;;;23.80;99.90;;;;;;5013601;28;20059;-59
2023/07/10 12:39:20;;;;;;;3.47;2.40;;;23.90;99.90;;;;;;5021463;28;19940;-61
2023/07/10 12:41:52;;;;;;;2.80;2.17;;;23.90;99.90;;;;;;5018968;28;20293;-63
2023/07/10 12:44:21;;;;;;;2.05;1.60;;;24.00;99.90;;;;;;5021999;28;20038;-63
2023/07/10 12:46:51;;;;;;;5.10;2.00;;;24.20;99.90;;;;;;5001639;28;20030;-61
2023/07/10 12:49:17;;;;;;;3.67;1.98;;;24.20;99.90;;;;;;5016677;28;20105;-61
2023/07/10 12:51:45;;;;;;;3.30;1.95;;;24.30;99.90;;;;;;5020345;28;20109;-62
2023/07/10 12:54:24;;;;;;;3.13;2.10;;;24.30;99.90;;;;;;5022658;28;20048;-62